createdAt,value
2022-11-06T00:01:27.707Z,7.01
2022-11-06T00:03:58.779Z,6.99
2022-11-06T00:06:45.626Z,6.99
2022-11-06T00:09:18.581Z,6.95
2022-11-06T00:11:50.378Z,6.93
2022-11-06T00:14:22.720Z,6.88
2022-11-06T00:16:51.267Z,6.91
2022-11-06T00:19:19.977Z,6.91
2022-11-06T00:21:48.633Z,6.92
2022-11-06T00:24:17.308Z,6.93
2022-11-06T00:26:51.303Z,6.90
2022-11-06T00:29:22.771Z,6.89
2022-11-06T00:31:53.650Z,6.90
2022-11-06T00:34:22.099Z,6.88
2022-11-06T00:36:50.781Z,6.85
2022-11-06T00:39:19.417Z,6.82
2022-11-06T00:41:48.080Z,6.83
2022-11-06T00:44:18.951Z,6.83
2022-11-06T00:46:47.450Z,6.77
2022-11-06T00:49:16.053Z,6.71
2022-11-06T00:51:44.634Z,6.69
2022-11-06T00:54:14.077Z,6.69
2022-11-06T00:56:42.497Z,6.70
2022-11-06T00:59:13.733Z,6.66
2022-11-06T01:01:44.425Z,6.63
2022-11-06T01:04:15.758Z,6.58
2022-11-06T01:06:48.953Z,6.54
2022-11-06T01:09:20.045Z,6.50
2022-11-06T01:12:12.209Z,6.49
2022-11-06T01:14:42.495Z,6.45
2022-11-06T01:17:14.750Z,6.42
2022-11-06T01:19:43.224Z,6.38
2022-11-06T01:22:11.721Z,6.33
2022-11-06T01:24:41.219Z,6.32
2022-11-06T01:27:25.858Z,6.31
2022-11-06T01:29:56.196Z,6.28
2022-11-06T01:32:27.318Z,6.24
2022-11-06T01:34:55.864Z,6.23
2022-11-06T01:37:24.461Z,6.26
2022-11-06T01:39:53.390Z,6.24
2022-11-06T01:42:22.036Z,6.20
2022-11-06T01:45:37.431Z,6.20
2022-11-06T01:48:06.491Z,6.09
2022-11-06T01:50:35.673Z,6.05
2022-11-06T01:53:05.212Z,5.97
2022-11-06T01:55:38.619Z,5.94
2022-11-06T01:58:10.367Z,5.98
2022-11-06T02:00:43.282Z,5.97
2022-11-06T02:03:13.067Z,5.96
2022-11-06T02:05:42.034Z,5.94
2022-11-06T02:08:15.850Z,5.93
2022-11-06T02:10:45.459Z,5.96
2022-11-06T02:13:32.248Z,5.93
2022-11-06T02:16:09.546Z,5.91
2022-11-06T02:18:57.842Z,5.92
2022-11-06T02:21:50.249Z,5.92
2022-11-06T02:24:47.020Z,5.89
2022-11-06T02:27:18.286Z,5.82
2022-11-06T02:29:51.264Z,5.83
2022-11-06T02:32:23.945Z,5.85
2022-11-06T02:34:55.191Z,5.84
2022-11-06T02:37:30.165Z,5.82
2022-11-06T02:40:03.918Z,5.78
2022-11-06T02:42:36.973Z,5.78
2022-11-06T02:45:10.015Z,5.78
2022-11-06T02:47:40.399Z,5.76
2022-11-06T02:50:12.991Z,5.75
2022-11-06T02:52:46.177Z,5.70
2022-11-06T02:55:18.784Z,5.71
2022-11-06T02:57:52.386Z,5.71
2022-11-06T03:00:23.183Z,5.72
2022-11-06T03:03:02.273Z,5.76
2022-11-06T03:05:36.071Z,5.75
2022-11-06T03:08:10.676Z,5.74
2022-11-06T03:10:45.075Z,5.73
2022-11-06T03:13:19.652Z,5.75
2022-11-06T03:15:59.594Z,5.78
2022-11-06T03:18:36.383Z,5.77
2022-11-06T03:21:14.109Z,5.75
2022-11-06T03:23:47.910Z,5.74
2022-11-06T03:26:22.297Z,5.73
2022-11-06T03:28:54.128Z,5.72
2022-11-06T03:31:32.503Z,5.70
2022-11-06T03:34:04.701Z,5.71
2022-11-06T03:36:39.273Z,5.70
2022-11-06T03:39:13.853Z,5.68
2022-11-06T03:41:50.414Z,5.64
2022-11-06T03:44:22.779Z,5.65
2022-11-06T03:47:11.401Z,5.69
2022-11-06T03:49:45.832Z,5.68
2022-11-06T03:52:19.306Z,5.65
2022-11-06T03:54:52.881Z,5.64
2022-11-06T03:57:25.322Z,5.65
2022-11-06T04:00:00.770Z,5.68
2022-11-06T04:02:33.087Z,5.65
2022-11-06T04:05:07.377Z,5.61
2022-11-06T04:07:38.649Z,5.59
2022-11-06T04:10:30.374Z,5.60
2022-11-06T04:13:18.079Z,5.53
2022-11-06T04:15:52.025Z,5.54
2022-11-06T04:18:20.637Z,5.57
2022-11-06T04:21:15.691Z,5.58
2022-11-06T04:24:13.342Z,5.55
2022-11-06T04:26:52.800Z,5.51
2022-11-06T04:29:33.912Z,5.52
2022-11-06T04:32:10.981Z,5.51
2022-11-06T04:34:45.537Z,5.46
2022-11-06T04:37:20.914Z,5.46
2022-11-06T04:39:56.279Z,5.45
2022-11-06T04:42:33.631Z,5.45
2022-11-06T04:45:06.475Z,5.43
2022-11-06T04:47:37.756Z,5.40
2022-11-06T04:50:11.265Z,5.40
2022-11-06T04:52:40.668Z,5.41
2022-11-06T04:55:09.626Z,5.43
2022-11-06T04:57:38.119Z,5.42
2022-11-06T05:00:12.060Z,5.42
2022-11-06T05:02:40.497Z,5.43
2022-11-06T05:05:09.143Z,5.42
2022-11-06T05:07:37.579Z,5.40
2022-11-06T05:10:10.119Z,5.39
2022-11-06T05:12:38.551Z,5.40
2022-11-06T05:15:09.522Z,5.39
2022-11-06T05:17:37.964Z,5.36
2022-11-06T05:20:08.070Z,5.32
2022-11-06T05:22:59.252Z,5.29
2022-11-06T05:25:29.662Z,5.24
2022-11-06T05:27:58.776Z,5.22
2022-11-06T05:30:27.901Z,5.19
2022-11-06T05:32:56.324Z,5.18
2022-11-06T05:35:25.150Z,5.19
2022-11-06T05:37:59.507Z,5.18
2022-11-06T05:40:31.440Z,5.16
2022-11-06T05:42:59.943Z,5.13
2022-11-06T05:45:29.897Z,5.12
2022-11-06T05:47:58.347Z,5.12
2022-11-06T05:50:27.137Z,5.09
2022-11-06T05:52:55.558Z,5.07
2022-11-06T05:55:24.053Z,5.09
2022-11-06T05:57:57.250Z,5.12
2022-11-06T06:03:25.206Z,5.08
2022-11-06T06:06:25.393Z,5.08
2022-11-06T06:08:53.752Z,5.07
2022-11-06T06:11:22.419Z,5.06
2022-11-06T06:13:50.856Z,5.03
2022-11-06T06:16:19.406Z,5.06
2022-11-06T06:18:50.495Z,5.09
2022-11-06T06:21:19.117Z,5.09
2022-11-06T06:23:50.557Z,5.08
2022-11-06T06:26:18.974Z,5.09
2022-11-06T06:28:49.689Z,5.11
2022-11-06T06:31:18.164Z,5.12
2022-11-06T06:33:46.661Z,5.12
2022-11-06T06:36:15.093Z,5.10
2022-11-06T06:38:43.521Z,5.11
2022-11-06T06:41:12.010Z,5.13
2022-11-06T06:43:40.730Z,5.14
2022-11-06T06:46:09.313Z,5.13
2022-11-06T06:48:37.781Z,5.14
2022-11-06T06:51:07.662Z,5.14
2022-11-06T06:53:36.747Z,5.18
2022-11-06T06:56:06.659Z,5.16
2022-11-06T06:58:35.233Z,5.17
2022-11-06T07:01:05.758Z,5.20
2022-11-06T07:03:34.423Z,5.21
2022-11-06T07:06:03.528Z,5.22
2022-11-06T07:08:33.139Z,5.23
2022-11-06T07:11:02.322Z,5.27
2022-11-06T07:13:35.578Z,5.31
2022-11-06T07:16:10.206Z,5.32
2022-11-06T07:18:40.118Z,5.34
2022-11-06T07:21:11.696Z,5.39
2022-11-06T07:23:40.539Z,5.45
2022-11-06T07:26:09.385Z,5.49
2022-11-06T07:28:37.958Z,5.51
2022-11-06T07:31:07.686Z,5.55
2022-11-06T07:33:36.641Z,5.61
2022-11-06T07:36:08.051Z,5.65
2022-11-06T07:38:38.284Z,5.69
2022-11-06T07:41:13.605Z,5.74
2022-11-06T07:43:43.631Z,5.78
2022-11-06T07:46:13.290Z,5.80
2022-11-06T07:48:42.020Z,5.83
2022-11-06T07:51:13.385Z,5.90
2022-11-06T07:53:42.025Z,5.95
2022-11-06T07:56:11.184Z,5.99
2022-11-06T07:58:40.007Z,6.03
2022-11-06T08:01:18.522Z,6.13
2022-11-06T08:03:48.301Z,6.20
2022-11-06T08:06:17.177Z,6.25
2022-11-06T08:08:46.650Z,6.31
2022-11-06T08:11:17.885Z,6.38
2022-11-06T08:13:46.926Z,6.47
2022-11-06T08:16:18.583Z,6.54
2022-11-06T08:18:52.658Z,6.56
2022-11-06T08:21:22.906Z,6.60
2022-11-06T08:23:51.870Z,6.69
2022-11-06T08:26:21.202Z,6.76
2022-11-06T08:28:49.894Z,6.82
2022-11-06T08:31:20.439Z,6.85
2022-11-06T08:33:50.637Z,6.86
2022-11-06T08:36:19.546Z,6.93
2022-11-06T08:38:48.749Z,6.97
2022-11-06T08:41:17.609Z,7.03
2022-11-06T08:43:50.723Z,7.12
2022-11-06T08:46:23.816Z,7.21
2022-11-06T08:48:52.432Z,7.30
2022-11-06T08:51:21.104Z,7.36
2022-11-06T08:53:50.196Z,7.43
2022-11-06T08:56:18.917Z,7.53
2022-11-06T08:58:51.524Z,7.61
2022-11-06T09:01:25.096Z,7.62
2022-11-06T09:03:53.983Z,7.72
2022-11-06T09:06:22.551Z,7.80
2022-11-06T09:08:51.013Z,7.86
2022-11-06T09:11:19.509Z,7.91
2022-11-06T09:13:48.261Z,7.99
2022-11-06T09:16:16.801Z,8.09
2022-11-06T09:18:45.338Z,8.18
2022-11-06T09:21:13.974Z,8.23
2022-11-06T09:23:43.955Z,8.32
2022-11-06T09:26:12.564Z,8.42
2022-11-06T09:28:41.591Z,8.38
2022-11-06T09:31:10.357Z,8.46
2022-11-06T09:33:39.036Z,8.46
2022-11-06T09:36:11.912Z,8.59
2022-11-06T09:38:40.479Z,8.72
2022-11-06T09:41:21.827Z,8.76
2022-11-06T09:44:06.902Z,8.84
2022-11-06T09:46:42.347Z,8.90
2022-11-06T09:49:19.707Z,8.96
2022-11-06T09:51:54.743Z,9.02
2022-11-06T09:54:28.358Z,9.08
2022-11-06T09:57:02.159Z,9.13
2022-11-06T09:59:34.791Z,9.19
2022-11-06T10:02:14.807Z,9.23
2022-11-06T10:04:55.306Z,9.26
2022-11-06T10:07:30.012Z,9.32
2022-11-06T10:10:00.839Z,9.38
2022-11-06T10:12:39.751Z,9.38
2022-11-06T10:15:22.095Z,9.37
2022-11-06T10:18:00.868Z,9.42
2022-11-06T10:20:36.180Z,9.50
2022-11-06T10:23:12.897Z,9.52
2022-11-06T10:25:54.156Z,9.55
2022-11-06T10:28:46.553Z,9.57
2022-11-06T10:31:24.305Z,9.55
2022-11-06T10:33:57.946Z,9.56
2022-11-06T10:36:31.353Z,9.64
2022-11-06T10:39:01.685Z,9.69
2022-11-06T10:41:35.176Z,9.73
2022-11-06T10:44:14.670Z,9.77
2022-11-06T10:46:47.895Z,9.78
2022-11-06T10:49:35.855Z,9.79
2022-11-06T10:52:25.595Z,9.81
2022-11-06T10:55:08.786Z,9.81
2022-11-06T10:57:44.436Z,9.81
2022-11-06T11:00:15.159Z,9.85
2022-11-06T11:02:47.826Z,9.84
2022-11-06T11:05:18.745Z,9.89
2022-11-06T11:07:49.215Z,9.93
2022-11-06T11:10:31.117Z,9.97
2022-11-06T11:13:07.152Z,10.01
2022-11-06T11:15:50.216Z,10.04
2022-11-06T11:18:30.435Z,10.04
2022-11-06T11:21:22.271Z,10.05
2022-11-06T11:24:08.935Z,10.11
2022-11-06T11:26:42.875Z,10.15
2022-11-06T11:29:16.861Z,10.18
2022-11-06T11:31:49.907Z,10.20
2022-11-06T11:34:21.981Z,10.24
2022-11-06T11:36:57.469Z,10.26
2022-11-06T11:39:30.268Z,10.29
2022-11-06T11:42:17.176Z,10.36
2022-11-06T11:44:45.993Z,10.37
2022-11-06T11:47:22.699Z,10.40
2022-11-06T11:49:51.369Z,10.41
2022-11-06T11:52:21.944Z,10.46
2022-11-06T11:54:53.908Z,10.49
2022-11-06T11:57:24.952Z,10.53
2022-11-06T11:59:57.182Z,10.54
2022-11-06T12:02:29.980Z,10.63
2022-11-06T12:05:05.809Z,10.66
2022-11-06T12:07:40.886Z,10.64
2022-11-06T12:10:22.672Z,10.58
2022-11-06T12:12:53.239Z,10.58
2022-11-06T12:15:25.888Z,10.61
2022-11-06T12:17:59.521Z,10.62
2022-11-06T12:20:39.460Z,10.67
2022-11-06T12:23:16.535Z,10.69
2022-11-06T12:25:52.973Z,10.68
2022-11-06T12:28:25.016Z,10.66
2022-11-06T12:31:03.161Z,10.63
2022-11-06T12:34:04.559Z,10.61
2022-11-06T12:36:27.127Z,10.58
2022-11-06T12:39:00.835Z,10.53
2022-11-06T12:41:32.930Z,10.54
2022-11-06T12:44:02.286Z,10.55
2022-11-06T12:46:40.261Z,10.57
2022-11-06T12:49:35.472Z,10.64
2022-11-06T12:52:15.808Z,10.67
2022-11-06T12:55:04.178Z,10.65
2022-11-06T12:57:43.098Z,10.61
2022-11-06T13:00:16.468Z,10.62
2022-11-06T13:03:19.186Z,10.63
2022-11-06T13:05:55.358Z,10.61
2022-11-06T13:08:35.384Z,10.60
2022-11-06T13:11:22.404Z,10.59
2022-11-06T13:14:02.284Z,10.63
2022-11-06T13:16:38.187Z,10.63
2022-11-06T13:19:15.189Z,10.67
2022-11-06T13:22:15.720Z,10.71
2022-11-06T13:24:51.100Z,10.68
2022-11-06T13:27:27.581Z,10.66
2022-11-06T13:30:01.716Z,10.65
2022-11-06T13:32:32.982Z,10.61
2022-11-06T13:35:03.716Z,10.60
2022-11-06T13:37:38.363Z,10.57
2022-11-06T13:40:18.411Z,10.61
2022-11-06T13:42:51.084Z,10.67
2022-11-06T13:45:21.745Z,10.68
2022-11-06T13:48:03.095Z,10.70
2022-11-06T13:50:38.499Z,10.68
2022-11-06T13:53:16.389Z,10.66
2022-11-06T13:55:59.904Z,10.64
2022-11-06T13:58:56.333Z,10.62
2022-11-06T14:01:40.094Z,10.56
2022-11-06T14:04:23.542Z,10.53
2022-11-06T14:06:56.812Z,10.52
2022-11-06T14:09:27.901Z,10.49
2022-11-06T14:12:00.010Z,10.45
2022-11-06T14:14:32.371Z,10.46
2022-11-06T14:17:23.128Z,10.50
2022-11-06T14:20:25.959Z,10.50
2022-11-06T14:22:54.573Z,10.49
2022-11-06T14:25:58.305Z,10.45
2022-11-06T14:28:31.950Z,10.44
2022-11-06T14:31:21.502Z,10.48
2022-11-06T14:34:01.931Z,10.48
2022-11-06T14:36:35.823Z,10.51
2022-11-06T14:39:10.699Z,10.50
2022-11-06T14:41:54.758Z,10.46
2022-11-06T14:44:44.760Z,10.43
2022-11-06T14:47:34.176Z,10.42
2022-11-06T14:50:23.322Z,10.40
2022-11-06T14:52:55.372Z,10.38
2022-11-06T14:55:29.905Z,10.37
2022-11-06T14:58:12.306Z,10.36
2022-11-06T15:00:50.293Z,10.34
2022-11-06T15:03:28.099Z,10.33
2022-11-06T15:06:05.387Z,10.28
2022-11-06T15:08:56.441Z,10.23
2022-11-06T15:11:54.118Z,10.20
2022-11-06T15:14:59.392Z,10.14
2022-11-06T15:17:34.419Z,10.05
2022-11-06T15:20:15.702Z,10.01
2022-11-06T15:22:53.352Z,9.98
2022-11-06T15:25:24.844Z,9.94
2022-11-06T15:27:58.973Z,9.90
2022-11-06T15:30:29.179Z,9.84
2022-11-06T15:33:17.034Z,9.81
2022-11-06T15:35:48.991Z,9.74
2022-11-06T15:38:22.605Z,9.69
2022-11-06T15:40:53.536Z,9.66
2022-11-06T15:43:28.631Z,9.63
2022-11-06T15:46:16.210Z,9.57
2022-11-06T15:48:45.076Z,9.53
2022-11-06T15:51:28.389Z,9.49
2022-11-06T15:53:59.068Z,9.44
2022-11-06T15:56:32.771Z,9.38
2022-11-06T15:59:13.229Z,9.35
2022-11-06T16:01:46.665Z,9.32
2022-11-06T16:04:21.551Z,9.28
2022-11-06T16:06:51.470Z,9.24
2022-11-06T16:09:23.226Z,9.21
2022-11-06T16:11:53.292Z,9.19
2022-11-06T16:14:22.404Z,9.15
2022-11-06T16:16:52.662Z,9.11
2022-11-06T16:19:30.997Z,9.10
2022-11-06T16:22:07.286Z,9.08
2022-11-06T16:24:43.622Z,9.04
2022-11-06T16:27:14.030Z,8.98
2022-11-06T16:29:49.732Z,8.94
2022-11-06T16:32:25.420Z,8.88
2022-11-06T16:34:54.654Z,8.82
2022-11-06T16:37:46.539Z,8.79
2022-11-06T16:40:49.842Z,8.72
2022-11-06T16:43:20.454Z,8.62
2022-11-06T16:45:55.110Z,8.58
2022-11-06T16:48:36.695Z,8.54
2022-11-06T16:51:08.062Z,8.48
2022-11-06T16:53:50.701Z,8.49
2022-11-06T16:56:24.116Z,8.47
2022-11-06T16:58:56.825Z,8.42
2022-11-06T17:01:26.402Z,8.39
2022-11-06T17:04:10.257Z,8.38
2022-11-06T17:06:38.835Z,8.35
2022-11-06T17:09:27.217Z,8.32
2022-11-06T17:11:57.751Z,8.30
2022-11-06T17:14:26.854Z,8.29
2022-11-06T17:16:57.595Z,8.27
2022-11-06T17:19:27.399Z,8.23
2022-11-06T17:21:57.333Z,8.23
2022-11-06T17:24:41.615Z,8.22
2022-11-06T17:27:10.418Z,8.12
2022-11-06T17:29:47.658Z,8.08
2022-11-06T17:32:24.506Z,8.03
2022-11-06T17:34:52.976Z,8.04
2022-11-06T17:37:21.859Z,8.07
2022-11-06T17:39:50.611Z,8.07
2022-11-06T17:42:19.337Z,8.05
2022-11-06T17:44:47.928Z,8.03
2022-11-06T17:47:16.387Z,8.05
2022-11-06T17:49:46.256Z,8.02
2022-11-06T17:52:32.760Z,7.94
2022-11-06T17:55:29.558Z,7.86
2022-11-06T17:57:58.158Z,7.89
2022-11-06T18:00:31.748Z,7.88
2022-11-06T18:03:37.330Z,7.88
2022-11-06T18:06:20.506Z,7.78
2022-11-06T18:08:48.959Z,7.80
2022-11-06T18:11:55.037Z,7.78
2022-11-06T18:14:26.053Z,7.75
2022-11-06T18:16:54.529Z,7.76
2022-11-06T18:19:25.056Z,7.76
2022-11-06T18:22:01.045Z,7.76
2022-11-06T18:24:38.146Z,7.72
2022-11-06T18:27:06.696Z,7.70
2022-11-06T18:29:35.145Z,7.71
2022-11-06T18:32:17.906Z,7.71
2022-11-06T18:34:49.160Z,7.69
2022-11-06T18:37:17.676Z,7.67
2022-11-06T18:39:46.156Z,7.65
2022-11-06T18:42:14.665Z,7.64
2022-11-06T18:44:43.208Z,7.66
2022-11-06T18:47:11.839Z,7.70
2022-11-06T18:49:40.360Z,7.69
2022-11-06T18:52:08.970Z,7.69
2022-11-06T18:54:39.172Z,7.67
2022-11-06T18:57:07.707Z,7.61
2022-11-06T18:59:36.528Z,7.58
2022-11-06T19:02:05.326Z,7.57
2022-11-06T19:04:34.754Z,7.58
2022-11-06T19:07:05.978Z,7.61
2022-11-06T19:09:34.652Z,7.63
2022-11-06T19:12:03.160Z,7.59
2022-11-06T19:14:31.707Z,7.62
2022-11-06T19:17:00.529Z,7.57
2022-11-06T19:19:28.947Z,7.56
2022-11-06T19:21:57.444Z,7.56
2022-11-06T19:24:26.188Z,7.53
2022-11-06T19:26:54.836Z,7.49
2022-11-06T19:29:30.378Z,7.47
2022-11-06T19:32:01.744Z,7.47
2022-11-06T19:34:34.093Z,7.45
2022-11-06T19:37:05.186Z,7.37
2022-11-06T19:39:36.773Z,7.39
2022-11-06T19:42:05.499Z,7.36
2022-11-06T19:44:36.802Z,7.34
2022-11-06T19:47:05.828Z,7.31
2022-11-06T19:49:34.270Z,7.33
2022-11-06T19:52:41.258Z,7.36
2022-11-06T19:54:51.372Z,7.33
2022-11-06T19:57:39.888Z,7.27
2022-11-06T20:00:11.620Z,7.28
2022-11-06T20:02:40.284Z,7.29
2022-11-06T20:05:09.337Z,7.28
2022-11-06T20:07:37.758Z,7.23
2022-11-06T20:10:08.328Z,7.20
2022-11-06T20:12:36.737Z,7.22
2022-11-06T20:15:06.861Z,7.24
2022-11-06T20:17:35.236Z,7.22
2022-11-06T20:20:04.797Z,7.21
2022-11-06T20:22:33.187Z,7.21
2022-11-06T20:25:01.676Z,7.22
2022-11-06T20:27:30.225Z,7.20
2022-11-06T20:30:00.811Z,7.16
2022-11-06T20:32:29.639Z,7.14
2022-11-06T20:34:59.173Z,7.14
2022-11-06T20:37:31.691Z,7.11
2022-11-06T20:40:00.677Z,7.10
2022-11-06T20:42:30.247Z,7.09
2022-11-06T20:44:58.870Z,7.07
2022-11-06T20:47:32.378Z,7.03
2022-11-06T20:50:00.946Z,6.97
2022-11-06T20:52:30.172Z,6.95
2022-11-06T20:54:59.512Z,6.95
2022-11-06T20:57:28.000Z,6.94
2022-11-06T20:59:59.154Z,6.92
2022-11-06T21:02:27.688Z,6.90
2022-11-06T21:04:57.392Z,6.89
2022-11-06T21:07:27.844Z,6.92
2022-11-06T21:09:58.663Z,6.90
2022-11-06T21:12:27.171Z,6.88
2022-11-06T21:14:55.773Z,6.86
2022-11-06T21:17:26.974Z,6.84
2022-11-06T21:19:55.538Z,6.83
2022-11-06T21:22:24.373Z,6.81
2022-11-06T21:24:52.950Z,6.82
2022-11-06T21:27:21.477Z,6.80
2022-11-06T21:29:50.193Z,6.80
2022-11-06T21:32:19.194Z,6.79
2022-11-06T21:34:47.678Z,6.75
2022-11-06T21:37:16.119Z,6.70
2022-11-06T21:39:44.569Z,6.69
2022-11-06T21:42:12.979Z,6.65
2022-11-06T21:44:42.086Z,6.67
2022-11-06T21:47:10.541Z,6.67
2022-11-06T21:49:39.598Z,6.67
2022-11-06T21:52:29.366Z,6.68
2022-11-06T21:55:16.610Z,6.66
2022-11-06T21:57:45.186Z,6.67
2022-11-06T22:00:15.914Z,6.65
2022-11-06T22:02:44.450Z,6.62
2022-11-06T22:05:13.866Z,6.61
2022-11-06T22:07:42.219Z,6.60
2022-11-06T22:10:12.802Z,6.55
2022-11-06T22:12:41.436Z,6.50
2022-11-06T22:15:10.780Z,6.51
2022-11-06T22:17:41.360Z,6.53
2022-11-06T22:20:12.060Z,6.53
2022-11-06T22:22:42.706Z,6.50
2022-11-06T22:25:12.051Z,6.48
2022-11-06T22:27:44.073Z,6.46
2022-11-06T22:30:14.155Z,6.41
2022-11-06T22:32:42.622Z,6.36
2022-11-06T22:35:11.089Z,6.35
2022-11-06T22:37:39.690Z,6.39
2022-11-06T22:40:11.112Z,6.39
2022-11-06T22:42:39.834Z,6.38
2022-11-06T22:45:09.992Z,6.39
2022-11-06T22:47:38.466Z,6.42
2022-11-06T22:50:08.615Z,6.43
2022-11-06T22:52:37.056Z,6.42
2022-11-06T22:55:06.924Z,6.38
2022-11-06T22:57:36.679Z,6.36
2022-11-06T23:00:12.563Z,6.35
2022-11-06T23:02:41.455Z,6.33
2022-11-06T23:05:10.262Z,6.33
2022-11-06T23:07:38.703Z,6.33
2022-11-06T23:10:09.504Z,6.35
2022-11-06T23:12:37.937Z,6.31
2022-11-06T23:15:10.097Z,6.29
2022-11-06T23:17:38.678Z,6.22
2022-11-06T23:20:09.277Z,6.21
2022-11-06T23:22:37.937Z,6.23
2022-11-06T23:25:09.144Z,6.20
2022-11-06T23:27:38.729Z,6.19
2022-11-06T23:30:10.572Z,6.19
2022-11-06T23:32:43.020Z,6.16
2022-11-06T23:35:16.079Z,6.15
2022-11-06T23:37:45.816Z,6.14
2022-11-06T23:40:16.808Z,6.12
2022-11-06T23:42:47.444Z,6.14
2022-11-06T23:45:34.855Z,6.12
2022-11-06T23:48:08.495Z,6.05
2022-11-06T23:50:37.279Z,6.04
2022-11-06T23:53:05.725Z,6.05
2022-11-06T23:55:35.491Z,6.03
2022-11-06T23:58:04.146Z,6.01
